sensor_id;sensor_type;location;lat;lon;timestamp;temperature;humidity
10083;DHT22;5080;48.528;8.078;2024-02-26T00:01:04;11.50;99.90
10083;DHT22;5080;48.528;8.078;2024-02-26T00:03:31;11.40;99.90
10083;DHT22;5080;48.528;8.078;2024-02-26T00:06:01;11.40;99.90
10083;DHT22;5080;48.528;8.078;2024-02-26T00:08:27;11.40;99.90
10083;DHT22;5080;48.528;8.078;2024-02-26T00:10:54;11.30;99.90
10083;DHT22;5080;48.528;8.078;2024-02-26T00:13:21;11.30;99.90
10083;DHT22;5080;48.528;8.078;2024-02-26T00:15:48;11.30;99.90
10083;DHT22;5080;48.528;8.078;2024-02-26T00:18:16;11.10;99.90
10083;DHT22;5080;48.528;8.078;2024-02-26T00:20:42;11.10;99.90
10083;DHT22;5080;48.528;8.078;2024-02-26T00:23:09;11.00;99.90
10083;DHT22;5080;48.528;8.078;2024-02-26T00:25:36;11.00;99.90
10083;DHT22;5080;48.528;8.078;2024-02-26T00:28:03;10.90;99.90
10083;DHT22;5080;48.528;8.078;2024-02-26T00:30:30;10.90;99.90
10083;DHT22;5080;48.528;8.078;2024-02-26T00:32:57;10.90;99.90
10083;DHT22;5080;48.528;8.078;2024-02-26T00:35:25;10.90;99.90
10083;DHT22;5080;48.528;8.078;2024-02-26T00:37:52;10.90;99.90
10083;DHT22;5080;48.528;8.078;2024-02-26T00:40:18;10.90;99.90
10083;DHT22;5080;48.528;8.078;2024-02-26T00:42:45;10.90;99.90
10083;DHT22;5080;48.528;8.078;2024-02-26T00:45:13;11.00;99.90
10083;DHT22;5080;48.528;8.078;2024-02-26T00:47:40;11.00;99.90
10083;DHT22;5080;48.528;8.078;2024-02-26T00:50:08;11.00;99.90
10083;DHT22;5080;48.528;8.078;2024-02-26T00:52:36;11.00;99.90
10083;DHT22;5080;48.528;8.078;2024-02-26T00:55:03;10.90;99.90
10083;DHT22;5080;48.528;8.078;2024-02-26T00:57:30;10.70;99.90
10083;DHT22;5080;48.528;8.078;2024-02-26T00:59:57;10.60;99.90
10083;DHT22;5080;48.528;8.078;2024-02-26T01:02:25;10.50;99.90
10083;DHT22;5080;48.528;8.078;2024-02-26T01:04:52;10.50;99.90
10083;DHT22;5080;48.528;8.078;2024-02-26T01:07:19;10.40;99.90
10083;DHT22;5080;48.528;8.078;2024-02-26T01:09:47;10.30;99.90
10083;DHT22;5080;48.528;8.078;2024-02-26T01:12:14;10.30;99.90
10083;DHT22;5080;48.528;8.078;2024-02-26T01:14:41;10.20;99.90
10083;DHT22;5080;48.528;8.078;2024-02-26T01:17:07;10.10;99.90
10083;DHT22;5080;48.528;8.078;2024-02-26T01:19:34;10.00;99.90
10083;DHT22;5080;48.528;8.078;2024-02-26T01:22:01;9.90;99.90
10083;DHT22;5080;48.528;8.078;2024-02-26T01:24:28;9.80;99.90
10083;DHT22;5080;48.528;8.078;2024-02-26T01:26:57;9.70;99.90
10083;DHT22;5080;48.528;8.078;2024-02-26T01:29:23;9.60;99.90
10083;DHT22;5080;48.528;8.078;2024-02-26T01:31:50;9.50;99.90
10083;DHT22;5080;48.528;8.078;2024-02-26T01:34:17;9.50;99.90
10083;DHT22;5080;48.528;8.078;2024-02-26T01:36:44;9.40;99.90
10083;DHT22;5080;48.528;8.078;2024-02-26T01:39:11;9.40;99.90
10083;DHT22;5080;48.528;8.078;2024-02-26T01:41:38;9.40;99.90
10083;DHT22;5080;48.528;8.078;2024-02-26T01:44:06;9.30;99.90
10083;DHT22;5080;48.528;8.078;2024-02-26T01:46:34;9.30;99.90
10083;DHT22;5080;48.528;8.078;2024-02-26T01:49:02;9.30;99.90
10083;DHT22;5080;48.528;8.078;2024-02-26T01:51:31;9.30;99.90
10083;DHT22;5080;48.528;8.078;2024-02-26T01:53:59;9.20;99.90
10083;DHT22;5080;48.528;8.078;2024-02-26T01:56:27;9.20;99.90
10083;DHT22;5080;48.528;8.078;2024-02-26T01:58:57;9.10;99.90
10083;DHT22;5080;48.528;8.078;2024-02-26T02:01:27;9.10;99.90
10083;DHT22;5080;48.528;8.078;2024-02-26T02:03:58;9.10;99.90
10083;DHT22;5080;48.528;8.078;2024-02-26T02:06:25;9.10;99.90
10083;DHT22;5080;48.528;8.078;2024-02-26T02:08:54;9.10;99.90
10083;DHT22;5080;48.528;8.078;2024-02-26T02:11:21;9.00;99.90
10083;DHT22;5080;48.528;8.078;2024-02-26T02:14:09;9.00;99.90
10083;DHT22;5080;48.528;8.078;2024-02-26T02:16:38;9.00;99.90
10083;DHT22;5080;48.528;8.078;2024-02-26T02:19:04;9.00;99.90
10083;DHT22;5080;48.528;8.078;2024-02-26T02:21:32;9.00;99.90
10083;DHT22;5080;48.528;8.078;2024-02-26T02:23:59;8.90;99.90
10083;DHT22;5080;48.528;8.078;2024-02-26T02:26:26;8.90;99.90
10083;DHT22;5080;48.528;8.078;2024-02-26T02:28:53;8.90;99.90
10083;DHT22;5080;48.528;8.078;2024-02-26T02:31:20;9.00;99.90
10083;DHT22;5080;48.528;8.078;2024-02-26T02:33:46;9.00;99.90
10083;DHT22;5080;48.528;8.078;2024-02-26T02:36:13;9.00;99.90
10083;DHT22;5080;48.528;8.078;2024-02-26T02:38:50;9.00;99.90
10083;DHT22;5080;48.528;8.078;2024-02-26T02:41:17;9.00;99.90
10083;DHT22;5080;48.528;8.078;2024-02-26T02:43:44;9.10;99.90
10083;DHT22;5080;48.528;8.078;2024-02-26T02:46:11;9.10;99.90
10083;DHT22;5080;48.528;8.078;2024-02-26T02:48:38;9.20;99.90
10083;DHT22;5080;48.528;8.078;2024-02-26T02:51:04;9.20;99.90
10083;DHT22;5080;48.528;8.078;2024-02-26T02:53:31;9.20;99.90
10083;DHT22;5080;48.528;8.078;2024-02-26T02:55:59;9.20;99.90
10083;DHT22;5080;48.528;8.078;2024-02-26T02:58:26;9.30;99.90
10083;DHT22;5080;48.528;8.078;2024-02-26T03:00:53;9.30;99.90
10083;DHT22;5080;48.528;8.078;2024-02-26T03:03:20;9.30;99.90
10083;DHT22;5080;48.528;8.078;2024-02-26T03:05:49;9.30;99.90
10083;DHT22;5080;48.528;8.078;2024-02-26T03:08:16;9.30;99.90
10083;DHT22;5080;48.528;8.078;2024-02-26T03:10:44;9.30;99.90
10083;DHT22;5080;48.528;8.078;2024-02-26T03:13:12;9.30;99.90
10083;DHT22;5080;48.528;8.078;2024-02-26T03:15:39;9.20;99.90
10083;DHT22;5080;48.528;8.078;2024-02-26T03:18:06;9.20;99.90
10083;DHT22;5080;48.528;8.078;2024-02-26T03:20:33;9.10;99.90
10083;DHT22;5080;48.528;8.078;2024-02-26T03:23:00;9.10;99.90
10083;DHT22;5080;48.528;8.078;2024-02-26T03:25:26;9.20;99.90
10083;DHT22;5080;48.528;8.078;2024-02-26T03:27:53;9.10;99.90
10083;DHT22;5080;48.528;8.078;2024-02-26T03:30:21;9.10;99.90
10083;DHT22;5080;48.528;8.078;2024-02-26T03:32:48;9.10;99.90
10083;DHT22;5080;48.528;8.078;2024-02-26T03:35:15;9.00;99.90
10083;DHT22;5080;48.528;8.078;2024-02-26T03:37:41;9.10;99.90
10083;DHT22;5080;48.528;8.078;2024-02-26T03:40:09;9.10;99.90
10083;DHT22;5080;48.528;8.078;2024-02-26T03:42:38;9.10;99.90
10083;DHT22;5080;48.528;8.078;2024-02-26T03:45:06;9.10;99.90
10083;DHT22;5080;48.528;8.078;2024-02-26T03:47:34;9.10;99.90
10083;DHT22;5080;48.528;8.078;2024-02-26T03:50:01;9.10;99.90
10083;DHT22;5080;48.528;8.078;2024-02-26T03:52:29;9.10;99.90
10083;DHT22;5080;48.528;8.078;2024-02-26T03:54:56;9.00;99.90
10083;DHT22;5080;48.528;8.078;2024-02-26T03:57:22;9.00;99.90
10083;DHT22;5080;48.528;8.078;2024-02-26T03:59:49;9.00;99.90
10083;DHT22;5080;48.528;8.078;2024-02-26T04:02:16;8.90;99.90
10083;DHT22;5080;48.528;8.078;2024-02-26T04:04:46;8.90;99.90
10083;DHT22;5080;48.528;8.078;2024-02-26T04:07:13;8.80;99.90
10083;DHT22;5080;48.528;8.078;2024-02-26T04:09:40;8.80;99.90
10083;DHT22;5080;48.528;8.078;2024-02-26T04:12:07;8.80;99.90
10083;DHT22;5080;48.528;8.078;2024-02-26T04:14:33;8.90;99.90
10083;DHT22;5080;48.528;8.078;2024-02-26T04:16:59;8.90;99.90
10083;DHT22;5080;48.528;8.078;2024-02-26T04:19:27;8.90;99.90
10083;DHT22;5080;48.528;8.078;2024-02-26T04:21:55;8.90;99.90
10083;DHT22;5080;48.528;8.078;2024-02-26T04:24:22;8.90;99.90
10083;DHT22;5080;48.528;8.078;2024-02-26T04:26:49;8.90;99.90
10083;DHT22;5080;48.528;8.078;2024-02-26T04:29:16;8.90;99.90
10083;DHT22;5080;48.528;8.078;2024-02-26T04:31:43;9.00;99.90
10083;DHT22;5080;48.528;8.078;2024-02-26T04:34:11;9.00;99.90
10083;DHT22;5080;48.528;8.078;2024-02-26T04:36:38;9.00;99.90
10083;DHT22;5080;48.528;8.078;2024-02-26T04:39:06;9.00;99.90
10083;DHT22;5080;48.528;8.078;2024-02-26T04:41:33;8.90;99.90
10083;DHT22;5080;48.528;8.078;2024-02-26T04:44:00;8.90;99.90
10083;DHT22;5080;48.528;8.078;2024-02-26T04:46:27;8.90;99.90
10083;DHT22;5080;48.528;8.078;2024-02-26T04:48:54;8.80;99.90
10083;DHT22;5080;48.528;8.078;2024-02-26T04:51:21;8.80;99.90
10083;DHT22;5080;48.528;8.078;2024-02-26T04:53:47;8.80;99.90
10083;DHT22;5080;48.528;8.078;2024-02-26T04:56:16;8.80;99.90
10083;DHT22;5080;48.528;8.078;2024-02-26T04:58:42;8.80;99.90
10083;DHT22;5080;48.528;8.078;2024-02-26T05:01:09;8.70;99.90
10083;DHT22;5080;48.528;8.078;2024-02-26T05:03:36;8.70;99.90
10083;DHT22;5080;48.528;8.078;2024-02-26T05:06:04;8.70;99.90
10083;DHT22;5080;48.528;8.078;2024-02-26T05:08:31;8.70;99.90
10083;DHT22;5080;48.528;8.078;2024-02-26T05:10:59;8.60;99.90
10083;DHT22;5080;48.528;8.078;2024-02-26T05:13:29;8.60;99.90
10083;DHT22;5080;48.528;8.078;2024-02-26T05:15:56;8.60;99.90
10083;DHT22;5080;48.528;8.078;2024-02-26T05:18:23;8.60;99.90
10083;DHT22;5080;48.528;8.078;2024-02-26T05:20:49;8.70;99.90
10083;DHT22;5080;48.528;8.078;2024-02-26T05:23:16;8.70;99.90
10083;DHT22;5080;48.528;8.078;2024-02-26T05:25:43;8.70;99.90
10083;DHT22;5080;48.528;8.078;2024-02-26T05:28:12;8.60;99.90
10083;DHT22;5080;48.528;8.078;2024-02-26T05:30:42;8.70;99.90
10083;DHT22;5080;48.528;8.078;2024-02-26T05:33:09;8.70;99.90
10083;DHT22;5080;48.528;8.078;2024-02-26T05:35:36;8.70;99.90
10083;DHT22;5080;48.528;8.078;2024-02-26T05:38:03;8.70;99.90
10083;DHT22;5080;48.528;8.078;2024-02-26T05:40:30;8.70;99.90
10083;DHT22;5080;48.528;8.078;2024-02-26T05:42:57;8.70;99.90
10083;DHT22;5080;48.528;8.078;2024-02-26T05:45:23;8.60;99.90
10083;DHT22;5080;48.528;8.078;2024-02-26T05:47:51;8.70;99.90
10083;DHT22;5080;48.528;8.078;2024-02-26T05:50:18;8.70;99.90
10083;DHT22;5080;48.528;8.078;2024-02-26T05:52:45;8.70;99.90
10083;DHT22;5080;48.528;8.078;2024-02-26T05:55:11;8.70;99.90
10083;DHT22;5080;48.528;8.078;2024-02-26T05:57:39;8.70;99.90
10083;DHT22;5080;48.528;8.078;2024-02-26T06:00:07;8.80;99.90
10083;DHT22;5080;48.528;8.078;2024-02-26T06:02:35;8.80;99.90
10083;DHT22;5080;48.528;8.078;2024-02-26T06:05:03;8.80;99.90
10083;DHT22;5080;48.528;8.078;2024-02-26T06:07:30;8.80;99.90
10083;DHT22;5080;48.528;8.078;2024-02-26T06:09:57;8.80;99.90
10083;DHT22;5080;48.528;8.078;2024-02-26T06:12:24;8.80;99.90
10083;DHT22;5080;48.528;8.078;2024-02-26T06:14:52;8.80;99.90
10083;DHT22;5080;48.528;8.078;2024-02-26T06:17:18;8.70;99.90
10083;DHT22;5080;48.528;8.078;2024-02-26T06:19:45;8.70;99.90
10083;DHT22;5080;48.528;8.078;2024-02-26T06:22:13;8.90;99.90
10083;DHT22;5080;48.528;8.078;2024-02-26T06:24:40;8.80;99.90
10083;DHT22;5080;48.528;8.078;2024-02-26T06:27:06;8.80;99.90
10083;DHT22;5080;48.528;8.078;2024-02-26T06:29:34;8.90;99.90
10083;DHT22;5080;48.528;8.078;2024-02-26T06:32:01;8.90;99.90
10083;DHT22;5080;48.528;8.078;2024-02-26T06:34:27;8.90;99.90
10083;DHT22;5080;48.528;8.078;2024-02-26T06:36:54;8.90;99.90
10083;DHT22;5080;48.528;8.078;2024-02-26T06:39:22;9.00;99.90
10083;DHT22;5080;48.528;8.078;2024-02-26T06:41:49;9.10;99.90
10083;DHT22;5080;48.528;8.078;2024-02-26T06:44:16;9.10;99.90
10083;DHT22;5080;48.528;8.078;2024-02-26T06:46:42;9.10;99.90
10083;DHT22;5080;48.528;8.078;2024-02-26T06:49:09;9.10;99.90
10083;DHT22;5080;48.528;8.078;2024-02-26T06:51:36;9.20;99.90
10083;DHT22;5080;48.528;8.078;2024-02-26T06:54:02;9.20;99.90
10083;DHT22;5080;48.528;8.078;2024-02-26T06:56:30;9.30;99.90
10083;DHT22;5080;48.528;8.078;2024-02-26T06:58:57;9.30;99.90
10083;DHT22;5080;48.528;8.078;2024-02-26T07:01:24;9.30;99.90
10083;DHT22;5080;48.528;8.078;2024-02-26T07:03:51;9.30;99.90
10083;DHT22;5080;48.528;8.078;2024-02-26T07:06:17;9.40;99.90
10083;DHT22;5080;48.528;8.078;2024-02-26T07:08:44;9.50;99.90
10083;DHT22;5080;48.528;8.078;2024-02-26T07:11:11;9.50;99.90
10083;DHT22;5080;48.528;8.078;2024-02-26T07:13:39;9.60;99.90
10083;DHT22;5080;48.528;8.078;2024-02-26T07:16:08;9.60;99.90
10083;DHT22;5080;48.528;8.078;2024-02-26T07:18:35;9.60;99.90
10083;DHT22;5080;48.528;8.078;2024-02-26T07:21:02;9.60;99.90
10083;DHT22;5080;48.528;8.078;2024-02-26T07:23:29;9.60;99.90
10083;DHT22;5080;48.528;8.078;2024-02-26T07:25:55;9.60;99.90
10083;DHT22;5080;48.528;8.078;2024-02-26T07:28:22;9.60;99.90
10083;DHT22;5080;48.528;8.078;2024-02-26T07:30:50;9.60;99.90
10083;DHT22;5080;48.528;8.078;2024-02-26T07:33:17;9.60;99.90
10083;DHT22;5080;48.528;8.078;2024-02-26T07:35:44;9.60;99.90
10083;DHT22;5080;48.528;8.078;2024-02-26T07:38:11;9.60;99.90
10083;DHT22;5080;48.528;8.078;2024-02-26T07:40:39;9.70;99.90
10083;DHT22;5080;48.528;8.078;2024-02-26T07:43:06;9.70;99.90
10083;DHT22;5080;48.528;8.078;2024-02-26T07:45:32;9.70;99.90
10083;DHT22;5080;48.528;8.078;2024-02-26T07:48:02;9.80;99.90
10083;DHT22;5080;48.528;8.078;2024-02-26T07:50:29;9.70;99.90
10083;DHT22;5080;48.528;8.078;2024-02-26T07:52:55;9.80;99.90
10083;DHT22;5080;48.528;8.078;2024-02-26T07:55:22;9.80;99.90
10083;DHT22;5080;48.528;8.078;2024-02-26T07:57:49;9.90;99.90
10083;DHT22;5080;48.528;8.078;2024-02-26T08:00:16;10.00;99.90
10083;DHT22;5080;48.528;8.078;2024-02-26T08:02:43;10.00;99.90
10083;DHT22;5080;48.528;8.078;2024-02-26T08:05:11;10.00;99.90
10083;DHT22;5080;48.528;8.078;2024-02-26T08:07:38;10.00;99.90
10083;DHT22;5080;48.528;8.078;2024-02-26T08:10:05;10.00;99.90
10083;DHT22;5080;48.528;8.078;2024-02-26T08:12:31;10.10;99.90
10083;DHT22;5080;48.528;8.078;2024-02-26T08:14:59;10.20;99.90
10083;DHT22;5080;48.528;8.078;2024-02-26T08:17:25;10.30;99.90
10083;DHT22;5080;48.528;8.078;2024-02-26T08:19:52;10.40;99.90
10083;DHT22;5080;48.528;8.078;2024-02-26T08:22:20;10.50;99.90
10083;DHT22;5080;48.528;8.078;2024-02-26T08:24:47;10.50;99.90
10083;DHT22;5080;48.528;8.078;2024-02-26T08:27:14;10.60;99.90
10083;DHT22;5080;48.528;8.078;2024-02-26T08:29:41;10.70;99.90
10083;DHT22;5080;48.528;8.078;2024-02-26T08:32:07;10.70;99.90
10083;DHT22;5080;48.528;8.078;2024-02-26T08:34:34;10.80;99.90
10083;DHT22;5080;48.528;8.078;2024-02-26T08:37:01;10.80;99.90
10083;DHT22;5080;48.528;8.078;2024-02-26T08:39:29;10.80;99.90
10083;DHT22;5080;48.528;8.078;2024-02-26T08:41:55;10.80;99.90
10083;DHT22;5080;48.528;8.078;2024-02-26T08:44:22;10.80;99.90
10083;DHT22;5080;48.528;8.078;2024-02-26T08:46:49;10.80;99.90
10083;DHT22;5080;48.528;8.078;2024-02-26T08:49:16;10.80;99.90
10083;DHT22;5080;48.528;8.078;2024-02-26T08:51:43;10.90;99.90
10083;DHT22;5080;48.528;8.078;2024-02-26T08:54:10;10.90;99.90
10083;DHT22;5080;48.528;8.078;2024-02-26T08:56:38;11.00;99.90
10083;DHT22;5080;48.528;8.078;2024-02-26T08:59:05;11.00;99.90
10083;DHT22;5080;48.528;8.078;2024-02-26T09:01:32;11.00;99.90
10083;DHT22;5080;48.528;8.078;2024-02-26T09:03:59;11.00;99.90
10083;DHT22;5080;48.528;8.078;2024-02-26T09:06:25;11.00;99.90
10083;DHT22;5080;48.528;8.078;2024-02-26T09:08:52;11.00;99.90
10083;DHT22;5080;48.528;8.078;2024-02-26T09:11:19;11.00;99.90
10083;DHT22;5080;48.528;8.078;2024-02-26T09:13:47;11.00;99.90
10083;DHT22;5080;48.528;8.078;2024-02-26T09:16:14;11.00;99.90
10083;DHT22;5080;48.528;8.078;2024-02-26T09:18:40;11.00;99.90
10083;DHT22;5080;48.528;8.078;2024-02-26T09:21:07;11.10;99.90
10083;DHT22;5080;48.528;8.078;2024-02-26T09:23:34;11.10;99.90
10083;DHT22;5080;48.528;8.078;2024-02-26T09:26:02;11.20;99.90
10083;DHT22;5080;48.528;8.078;2024-02-26T09:28:28;11.30;99.90
10083;DHT22;5080;48.528;8.078;2024-02-26T09:30:58;11.40;99.90
10083;DHT22;5080;48.528;8.078;2024-02-26T09:33:25;11.50;99.90
10083;DHT22;5080;48.528;8.078;2024-02-26T09:35:52;11.60;99.90
10083;DHT22;5080;48.528;8.078;2024-02-26T09:38:18;11.70;99.90
10083;DHT22;5080;48.528;8.078;2024-02-26T09:40:45;11.80;99.90
10083;DHT22;5080;48.528;8.078;2024-02-26T09:43:14;12.00;99.90
10083;DHT22;5080;48.528;8.078;2024-02-26T09:45:41;12.20;99.90
10083;DHT22;5080;48.528;8.078;2024-02-26T09:48:11;12.40;99.90
10083;DHT22;5080;48.528;8.078;2024-02-26T09:50:40;12.50;99.90
10083;DHT22;5080;48.528;8.078;2024-02-26T09:53:08;12.60;99.90
10083;DHT22;5080;48.528;8.078;2024-02-26T09:55:36;12.70;99.90
10083;DHT22;5080;48.528;8.078;2024-02-26T09:58:05;12.80;99.90
10083;DHT22;5080;48.528;8.078;2024-02-26T10:00:31;12.90;99.90
10083;DHT22;5080;48.528;8.078;2024-02-26T10:03:03;13.10;99.90
10083;DHT22;5080;48.528;8.078;2024-02-26T10:05:31;13.20;99.90
10083;DHT22;5080;48.528;8.078;2024-02-26T10:07:59;13.30;99.90
10083;DHT22;5080;48.528;8.078;2024-02-26T10:10:28;13.40;99.90
10083;DHT22;5080;48.528;8.078;2024-02-26T10:12:55;13.50;99.90
10083;DHT22;5080;48.528;8.078;2024-02-26T10:15:22;13.50;99.90
10083;DHT22;5080;48.528;8.078;2024-02-26T10:17:48;13.70;99.90
10083;DHT22;5080;48.528;8.078;2024-02-26T10:20:16;13.80;99.90
10083;DHT22;5080;48.528;8.078;2024-02-26T10:22:45;14.00;99.90
10083;DHT22;5080;48.528;8.078;2024-02-26T10:25:12;14.20;99.90
10083;DHT22;5080;48.528;8.078;2024-02-26T10:27:40;14.30;99.90
10083;DHT22;5080;48.528;8.078;2024-02-26T10:30:16;14.20;99.90
10083;DHT22;5080;48.528;8.078;2024-02-26T10:32:44;14.40;99.90
10083;DHT22;5080;48.528;8.078;2024-02-26T10:35:10;14.50;99.90
10083;DHT22;5080;48.528;8.078;2024-02-26T10:37:37;14.80;99.90
10083;DHT22;5080;48.528;8.078;2024-02-26T10:40:08;15.00;99.90
10083;DHT22;5080;48.528;8.078;2024-02-26T10:42:36;15.10;99.90
10083;DHT22;5080;48.528;8.078;2024-02-26T10:45:03;15.10;99.90
10083;DHT22;5080;48.528;8.078;2024-02-26T10:47:31;15.20;99.90
10083;DHT22;5080;48.528;8.078;2024-02-26T10:49:59;15.10;99.90
10083;DHT22;5080;48.528;8.078;2024-02-26T10:52:26;15.00;99.90
10083;DHT22;5080;48.528;8.078;2024-02-26T10:54:54;15.00;99.90
10083;DHT22;5080;48.528;8.078;2024-02-26T10:57:24;15.00;99.90
10083;DHT22;5080;48.528;8.078;2024-02-26T10:59:53;14.90;99.90
10083;DHT22;5080;48.528;8.078;2024-02-26T11:02:20;14.80;99.90
10083;DHT22;5080;48.528;8.078;2024-02-26T11:04:47;14.50;99.90
10083;DHT22;5080;48.528;8.078;2024-02-26T11:07:16;14.40;99.90
10083;DHT22;5080;48.528;8.078;2024-02-26T11:09:44;14.40;99.90
10083;DHT22;5080;48.528;8.078;2024-02-26T11:12:17;14.40;99.90
10083;DHT22;5080;48.528;8.078;2024-02-26T11:14:46;14.20;99.90
10083;DHT22;5080;48.528;8.078;2024-02-26T11:17:15;13.90;99.90
10083;DHT22;5080;48.528;8.078;2024-02-26T11:19:43;14.00;99.90
10083;DHT22;5080;48.528;8.078;2024-02-26T11:22:11;13.90;99.90
10083;DHT22;5080;48.528;8.078;2024-02-26T11:24:38;13.90;99.90
10083;DHT22;5080;48.528;8.078;2024-02-26T11:27:09;13.80;99.90
10083;DHT22;5080;48.528;8.078;2024-02-26T11:29:41;13.80;99.90
10083;DHT22;5080;48.528;8.078;2024-02-26T11:32:11;13.80;99.90
10083;DHT22;5080;48.528;8.078;2024-02-26T11:34:38;13.70;99.90
10083;DHT22;5080;48.528;8.078;2024-02-26T11:37:12;13.60;99.90
10083;DHT22;5080;48.528;8.078;2024-02-26T11:39:39;13.60;99.90
10083;DHT22;5080;48.528;8.078;2024-02-26T11:42:07;13.70;99.90
10083;DHT22;5080;48.528;8.078;2024-02-26T11:44:34;13.60;99.90
10083;DHT22;5080;48.528;8.078;2024-02-26T11:47:11;13.50;99.90
10083;DHT22;5080;48.528;8.078;2024-02-26T11:49:38;13.60;99.90
10083;DHT22;5080;48.528;8.078;2024-02-26T11:52:06;13.70;99.90
10083;DHT22;5080;48.528;8.078;2024-02-26T11:54:38;13.80;99.90
10083;DHT22;5080;48.528;8.078;2024-02-26T11:57:04;13.70;99.90
10083;DHT22;5080;48.528;8.078;2024-02-26T11:59:45;13.70;99.90
10083;DHT22;5080;48.528;8.078;2024-02-26T12:02:37;13.80;99.90
10083;DHT22;5080;48.528;8.078;2024-02-26T12:05:07;13.90;99.90
10083;DHT22;5080;48.528;8.078;2024-02-26T12:07:34;14.00;99.90
10083;DHT22;5080;48.528;8.078;2024-02-26T12:10:19;14.10;99.90
10083;DHT22;5080;48.528;8.078;2024-02-26T12:12:47;14.20;99.90
10083;DHT22;5080;48.528;8.078;2024-02-26T12:15:15;14.20;99.90
10083;DHT22;5080;48.528;8.078;2024-02-26T12:17:48;14.10;99.90
10083;DHT22;5080;48.528;8.078;2024-02-26T12:20:17;14.30;99.90
10083;DHT22;5080;48.528;8.078;2024-02-26T12:22:45;14.20;99.90
10083;DHT22;5080;48.528;8.078;2024-02-26T12:25:13;14.20;99.90
10083;DHT22;5080;48.528;8.078;2024-02-26T12:27:39;14.30;99.90
10083;DHT22;5080;48.528;8.078;2024-02-26T12:30:08;14.30;99.90
10083;DHT22;5080;48.528;8.078;2024-02-26T12:32:35;14.40;99.90
10083;DHT22;5080;48.528;8.078;2024-02-26T12:35:04;14.30;99.90
10083;DHT22;5080;48.528;8.078;2024-02-26T12:37:32;14.40;99.90
10083;DHT22;5080;48.528;8.078;2024-02-26T12:39:59;14.50;99.90
10083;DHT22;5080;48.528;8.078;2024-02-26T12:42:26;14.50;99.90
10083;DHT22;5080;48.528;8.078;2024-02-26T12:44:53;14.60;99.90
10083;DHT22;5080;48.528;8.078;2024-02-26T12:47:19;14.60;99.90
10083;DHT22;5080;48.528;8.078;2024-02-26T12:49:47;14.70;99.90
10083;DHT22;5080;48.528;8.078;2024-02-26T12:52:16;14.70;99.90
10083;DHT22;5080;48.528;8.078;2024-02-26T12:54:44;14.70;99.90
10083;DHT22;5080;48.528;8.078;2024-02-26T12:57:11;14.70;99.90
10083;DHT22;5080;48.528;8.078;2024-02-26T12:59:38;14.70;99.90
10083;DHT22;5080;48.528;8.078;2024-02-26T13:02:05;14.80;99.90
10083;DHT22;5080;48.528;8.078;2024-02-26T13:04:32;14.80;99.90
10083;DHT22;5080;48.528;8.078;2024-02-26T13:06:59;14.70;99.90
10083;DHT22;5080;48.528;8.078;2024-02-26T13:09:34;14.70;99.90
10083;DHT22;5080;48.528;8.078;2024-02-26T13:12:04;14.70;99.90
10083;DHT22;5080;48.528;8.078;2024-02-26T13:14:31;14.70;99.90
10083;DHT22;5080;48.528;8.078;2024-02-26T13:16:59;14.70;99.90
10083;DHT22;5080;48.528;8.078;2024-02-26T13:19:26;14.70;99.90
10083;DHT22;5080;48.528;8.078;2024-02-26T13:21:54;14.70;99.90
10083;DHT22;5080;48.528;8.078;2024-02-26T13:24:21;14.60;99.90
10083;DHT22;5080;48.528;8.078;2024-02-26T13:26:55;14.70;99.90
10083;DHT22;5080;48.528;8.078;2024-02-26T13:29:22;14.80;99.90
10083;DHT22;5080;48.528;8.078;2024-02-26T13:31:54;14.80;99.90
10083;DHT22;5080;48.528;8.078;2024-02-26T13:34:25;14.70;99.90
10083;DHT22;5080;48.528;8.078;2024-02-26T13:36:53;14.70;99.90
10083;DHT22;5080;48.528;8.078;2024-02-26T13:39:23;14.70;99.90
10083;DHT22;5080;48.528;8.078;2024-02-26T13:41:50;14.70;99.90
10083;DHT22;5080;48.528;8.078;2024-02-26T13:44:19;14.80;99.90
10083;DHT22;5080;48.528;8.078;2024-02-26T13:46:46;14.90;99.90
10083;DHT22;5080;48.528;8.078;2024-02-26T13:49:14;14.90;99.90
10083;DHT22;5080;48.528;8.078;2024-02-26T13:51:41;15.00;99.90
10083;DHT22;5080;48.528;8.078;2024-02-26T13:54:08;15.10;99.90
10083;DHT22;5080;48.528;8.078;2024-02-26T13:56:36;15.10;99.90
10083;DHT22;5080;48.528;8.078;2024-02-26T13:59:03;15.20;99.90
10083;DHT22;5080;48.528;8.078;2024-02-26T14:01:31;15.30;99.90
10083;DHT22;5080;48.528;8.078;2024-02-26T14:03:59;15.20;99.90
10083;DHT22;5080;48.528;8.078;2024-02-26T14:06:27;15.10;99.90
10083;DHT22;5080;48.528;8.078;2024-02-26T14:08:53;15.10;99.90
10083;DHT22;5080;48.528;8.078;2024-02-26T14:11:20;15.00;99.90
10083;DHT22;5080;48.528;8.078;2024-02-26T14:13:47;14.90;99.90
10083;DHT22;5080;48.528;8.078;2024-02-26T14:16:13;14.80;99.90
10083;DHT22;5080;48.528;8.078;2024-02-26T14:18:41;14.80;99.90
10083;DHT22;5080;48.528;8.078;2024-02-26T14:21:10;14.80;99.90
10083;DHT22;5080;48.528;8.078;2024-02-26T14:23:37;14.90;99.90
10083;DHT22;5080;48.528;8.078;2024-02-26T14:26:04;14.80;99.90
10083;DHT22;5080;48.528;8.078;2024-02-26T14:28:31;14.80;99.90
10083;DHT22;5080;48.528;8.078;2024-02-26T14:30:58;14.80;99.90
10083;DHT22;5080;48.528;8.078;2024-02-26T14:33:25;14.90;99.90
10083;DHT22;5080;48.528;8.078;2024-02-26T14:35:53;14.90;99.90
10083;DHT22;5080;48.528;8.078;2024-02-26T14:38:20;14.80;99.90
10083;DHT22;5080;48.528;8.078;2024-02-26T14:40:48;14.80;99.90
10083;DHT22;5080;48.528;8.078;2024-02-26T14:43:15;14.80;99.90
10083;DHT22;5080;48.528;8.078;2024-02-26T14:45:42;14.80;99.90
10083;DHT22;5080;48.528;8.078;2024-02-26T14:48:09;14.80;99.90
10083;DHT22;5080;48.528;8.078;2024-02-26T14:50:36;14.80;99.90
10083;DHT22;5080;48.528;8.078;2024-02-26T14:53:05;14.70;99.90
10083;DHT22;5080;48.528;8.078;2024-02-26T14:55:31;14.70;99.90
10083;DHT22;5080;48.528;8.078;2024-02-26T14:57:59;14.70;99.90
10083;DHT22;5080;48.528;8.078;2024-02-26T15:00:26;14.70;99.90
10083;DHT22;5080;48.528;8.078;2024-02-26T15:02:53;14.70;99.90
10083;DHT22;5080;48.528;8.078;2024-02-26T15:05:21;14.70;99.90
10083;DHT22;5080;48.528;8.078;2024-02-26T15:07:48;14.80;99.90
10083;DHT22;5080;48.528;8.078;2024-02-26T15:10:16;14.80;99.90
10083;DHT22;5080;48.528;8.078;2024-02-26T15:12:43;14.80;99.90
10083;DHT22;5080;48.528;8.078;2024-02-26T15:15:09;14.70;99.90
10083;DHT22;5080;48.528;8.078;2024-02-26T15:17:36;14.80;99.90
10083;DHT22;5080;48.528;8.078;2024-02-26T15:20:04;14.80;99.90
10083;DHT22;5080;48.528;8.078;2024-02-26T15:22:33;14.90;99.90
10083;DHT22;5080;48.528;8.078;2024-02-26T15:25:00;14.90;99.90
10083;DHT22;5080;48.528;8.078;2024-02-26T15:27:28;14.90;99.90
10083;DHT22;5080;48.528;8.078;2024-02-26T15:29:55;14.90;99.90
10083;DHT22;5080;48.528;8.078;2024-02-26T15:32:23;14.80;99.90
10083;DHT22;5080;48.528;8.078;2024-02-26T15:34:52;14.80;99.90
10083;DHT22;5080;48.528;8.078;2024-02-26T15:37:19;14.80;99.90
10083;DHT22;5080;48.528;8.078;2024-02-26T15:39:46;14.80;99.90
10083;DHT22;5080;48.528;8.078;2024-02-26T15:42:13;14.80;99.90
10083;DHT22;5080;48.528;8.078;2024-02-26T15:44:42;14.80;99.90
10083;DHT22;5080;48.528;8.078;2024-02-26T15:47:09;14.80;99.90
10083;DHT22;5080;48.528;8.078;2024-02-26T15:49:36;14.80;99.90
10083;DHT22;5080;48.528;8.078;2024-02-26T15:52:03;14.80;99.90
10083;DHT22;5080;48.528;8.078;2024-02-26T15:54:30;14.80;99.90